Flight Information

DEPARTURE
RIVERSIDE, CA
Elevation:
818
Runways:
9/27 - 5401x100 - ASPH-G
H1 - 60x60 - ASPH-G
16/34 - 2850x50 - ASPH-F
Active PE Departure:
27
Current PE ATIS:
M
Altimeter:
29.96
Remarks:
ATIS:
128.8 951-688-7257
Ground:
121.7
Tower:
121
DESTINATION
,
Elevation:
TPA:
1000 (est.)


6748.4 NM74° True-14° Var60° HDG

Flight Plan:
(click to file on line)

1. Type
2. Aircraft Identification
3. Aircraft Type / Special Equipment
4. True Airspeed
kts
5. Departure Airport
(ICAO code)
6. Arriving Airport
(ICAO code)
7. Cruising Altitude
ft
8. Alternate Airport
(ICAO code)
9. Route of Flight
10. Remarks


00:00:00 Departure ATIS: Destination ATIS:

Clearance Limit:
Route:
Altitude: Expect in minutes
Frequency:
Transponder: (7500 Hijack / 7600 Lost Comms / 7700 Emergency)


KRAL 051553Z 00000KT 10SM CLR 25/09 A2996 RMK AO2 SLP128 T02500094
Time: 2020-07-05T15:53:00Z
1593966457
Winds: calm
Visibility: 10.0 sm
Clouds (AGL): CLR
Temperature: 25.0 C
Dew Point: 9.4 C
Pressure: 29.958662 in Hgbr


Notes:

Data extracted from FAA Digital Chart Supplement. Effective: 0901Z Thursday, May 21, 2020 to 0901Z Thursday, Jul 16, 2020
Current ATIS data is provided courtisy of PilotEdge.